sensor_id;sensor_type;location;lat;lon;timestamp;temperature;humidity
24638;DHT22;12773;50.162;8.548;2022-07-17T00:00:18;18.30;79.80
24638;DHT22;12773;50.162;8.548;2022-07-17T00:03:05;18.20;81.20
24638;DHT22;12773;50.162;8.548;2022-07-17T00:05:52;18.00;82.30
24638;DHT22;12773;50.162;8.548;2022-07-17T00:08:40;17.90;83.40
24638;DHT22;12773;50.162;8.548;2022-07-17T00:11:27;17.80;84.20
24638;DHT22;12773;50.162;8.548;2022-07-17T00:14:15;17.60;83.50
24638;DHT22;12773;50.162;8.548;2022-07-17T00:17:02;17.50;85.50
24638;DHT22;12773;50.162;8.548;2022-07-17T00:19:51;17.40;85.00
24638;DHT22;12773;50.162;8.548;2022-07-17T00:22:38;17.10;86.30
24638;DHT22;12773;50.162;8.548;2022-07-17T00:25:28;17.00;87.60
24638;DHT22;12773;50.162;8.548;2022-07-17T00:28:15;16.80;89.30
24638;DHT22;12773;50.162;8.548;2022-07-17T00:31:02;16.50;90.80
24638;DHT22;12773;50.162;8.548;2022-07-17T00:33:50;16.40;92.30
24638;DHT22;12773;50.162;8.548;2022-07-17T00:36:37;16.10;94.00
24638;DHT22;12773;50.162;8.548;2022-07-17T00:39:25;16.10;95.00
24638;DHT22;12773;50.162;8.548;2022-07-17T00:42:14;16.00;95.60
24638;DHT22;12773;50.162;8.548;2022-07-17T00:45:02;15.90;96.60
24638;DHT22;12773;50.162;8.548;2022-07-17T00:47:55;16.00;97.20
24638;DHT22;12773;50.162;8.548;2022-07-17T00:50:42;15.90;97.80
24638;DHT22;12773;50.162;8.548;2022-07-17T00:53:31;15.80;98.50
24638;DHT22;12773;50.162;8.548;2022-07-17T00:56:21;15.70;98.70
24638;DHT22;12773;50.162;8.548;2022-07-17T00:59:09;15.60;99.10
24638;DHT22;12773;50.162;8.548;2022-07-17T01:01:58;15.60;99.50
24638;DHT22;12773;50.162;8.548;2022-07-17T01:04:46;15.60;99.80
24638;DHT22;12773;50.162;8.548;2022-07-17T01:07:33;15.70;99.70
24638;DHT22;12773;50.162;8.548;2022-07-17T01:10:20;15.80;99.40
24638;DHT22;12773;50.162;8.548;2022-07-17T01:13:08;15.90;99.90
24638;DHT22;12773;50.162;8.548;2022-07-17T01:15:56;15.90;99.90
24638;DHT22;12773;50.162;8.548;2022-07-17T01:18:44;15.90;99.20
24638;DHT22;12773;50.162;8.548;2022-07-17T01:21:43;15.90;99.00
24638;DHT22;12773;50.162;8.548;2022-07-17T01:24:30;15.90;99.20
24638;DHT22;12773;50.162;8.548;2022-07-17T01:27:17;16.00;99.20
24638;DHT22;12773;50.162;8.548;2022-07-17T01:30:05;15.90;99.70
24638;DHT22;12773;50.162;8.548;2022-07-17T01:32:53;15.90;99.20
24638;DHT22;12773;50.162;8.548;2022-07-17T01:35:41;15.90;99.20
24638;DHT22;12773;50.162;8.548;2022-07-17T01:38:28;15.90;99.30
24638;DHT22;12773;50.162;8.548;2022-07-17T01:41:16;15.90;99.20
24638;DHT22;12773;50.162;8.548;2022-07-17T01:44:03;15.90;98.90
24638;DHT22;12773;50.162;8.548;2022-07-17T01:46:52;16.00;98.90
24638;DHT22;12773;50.162;8.548;2022-07-17T01:49:50;16.00;98.80
24638;DHT22;12773;50.162;8.548;2022-07-17T01:52:36;16.00;98.70
24638;DHT22;12773;50.162;8.548;2022-07-17T01:55:23;16.10;98.50
24638;DHT22;12773;50.162;8.548;2022-07-17T01:58:12;16.10;98.70
24638;DHT22;12773;50.162;8.548;2022-07-17T02:01:00;16.10;99.00
24638;DHT22;12773;50.162;8.548;2022-07-17T02:03:47;16.00;98.80
24638;DHT22;12773;50.162;8.548;2022-07-17T02:06:35;16.10;98.90
24638;DHT22;12773;50.162;8.548;2022-07-17T02:09:23;16.10;98.80
24638;DHT22;12773;50.162;8.548;2022-07-17T02:12:10;16.10;98.70
24638;DHT22;12773;50.162;8.548;2022-07-17T02:14:57;15.90;99.70
24638;DHT22;12773;50.162;8.548;2022-07-17T02:17:45;15.70;99.90
24638;DHT22;12773;50.162;8.548;2022-07-17T02:20:34;15.70;99.90
24638;DHT22;12773;50.162;8.548;2022-07-17T02:23:21;15.70;99.90
24638;DHT22;12773;50.162;8.548;2022-07-17T02:26:09;15.60;99.90
24638;DHT22;12773;50.162;8.548;2022-07-17T02:28:56;15.50;99.90
24638;DHT22;12773;50.162;8.548;2022-07-17T02:31:43;15.50;99.90
24638;DHT22;12773;50.162;8.548;2022-07-17T02:34:31;15.50;99.90
24638;DHT22;12773;50.162;8.548;2022-07-17T02:37:18;15.40;99.90
24638;DHT22;12773;50.162;8.548;2022-07-17T02:40:25;15.40;99.90
24638;DHT22;12773;50.162;8.548;2022-07-17T02:43:12;15.40;99.90
24638;DHT22;12773;50.162;8.548;2022-07-17T02:46:01;15.40;99.90
24638;DHT22;12773;50.162;8.548;2022-07-17T02:48:48;15.40;99.90
24638;DHT22;12773;50.162;8.548;2022-07-17T02:51:35;15.40;99.90
24638;DHT22;12773;50.162;8.548;2022-07-17T02:54:22;15.40;99.90
24638;DHT22;12773;50.162;8.548;2022-07-17T02:57:11;15.20;99.90
24638;DHT22;12773;50.162;8.548;2022-07-17T02:59:58;15.20;99.90
24638;DHT22;12773;50.162;8.548;2022-07-17T03:02:46;15.10;99.90
24638;DHT22;12773;50.162;8.548;2022-07-17T03:05:34;15.10;99.90
24638;DHT22;12773;50.162;8.548;2022-07-17T03:08:21;15.10;99.90
24638;DHT22;12773;50.162;8.548;2022-07-17T03:11:09;14.90;99.90
24638;DHT22;12773;50.162;8.548;2022-07-17T03:13:56;14.90;99.90
24638;DHT22;12773;50.162;8.548;2022-07-17T03:16:44;14.90;99.90
24638;DHT22;12773;50.162;8.548;2022-07-17T03:19:31;14.80;99.90
24638;DHT22;12773;50.162;8.548;2022-07-17T03:22:18;14.80;99.90
24638;DHT22;12773;50.162;8.548;2022-07-17T03:25:07;14.80;99.90
24638;DHT22;12773;50.162;8.548;2022-07-17T03:27:54;14.80;99.90
24638;DHT22;12773;50.162;8.548;2022-07-17T03:30:42;14.90;99.90
24638;DHT22;12773;50.162;8.548;2022-07-17T03:33:30;14.80;99.90
24638;DHT22;12773;50.162;8.548;2022-07-17T03:36:17;14.80;99.90
24638;DHT22;12773;50.162;8.548;2022-07-17T03:39:04;14.70;99.90
24638;DHT22;12773;50.162;8.548;2022-07-17T03:41:52;14.70;99.90
24638;DHT22;12773;50.162;8.548;2022-07-17T03:44:39;14.70;99.90
24638;DHT22;12773;50.162;8.548;2022-07-17T03:47:26;14.70;99.90
24638;DHT22;12773;50.162;8.548;2022-07-17T03:50:14;14.70;99.90
24638;DHT22;12773;50.162;8.548;2022-07-17T03:53:02;14.70;99.90
24638;DHT22;12773;50.162;8.548;2022-07-17T03:55:49;14.70;99.90
24638;DHT22;12773;50.162;8.548;2022-07-17T03:58:36;14.70;99.90
24638;DHT22;12773;50.162;8.548;2022-07-17T04:01:24;14.70;99.90
24638;DHT22;12773;50.162;8.548;2022-07-17T04:04:12;14.80;99.90
24638;DHT22;12773;50.162;8.548;2022-07-17T04:06:59;14.90;99.90
24638;DHT22;12773;50.162;8.548;2022-07-17T04:09:47;14.90;99.90
24638;DHT22;12773;50.162;8.548;2022-07-17T04:12:34;15.10;99.90
24638;DHT22;12773;50.162;8.548;2022-07-17T04:15:22;15.10;99.90
24638;DHT22;12773;50.162;8.548;2022-07-17T04:18:29;15.20;99.90
24638;DHT22;12773;50.162;8.548;2022-07-17T04:21:17;15.20;99.90
24638;DHT22;12773;50.162;8.548;2022-07-17T04:24:04;15.20;99.90
24638;DHT22;12773;50.162;8.548;2022-07-17T04:26:52;15.20;99.90
24638;DHT22;12773;50.162;8.548;2022-07-17T04:29:39;15.20;99.90
24638;DHT22;12773;50.162;8.548;2022-07-17T04:32:27;15.20;99.90
24638;DHT22;12773;50.162;8.548;2022-07-17T04:35:15;15.10;99.90
24638;DHT22;12773;50.162;8.548;2022-07-17T04:38:03;15.10;99.90
24638;DHT22;12773;50.162;8.548;2022-07-17T04:40:52;15.20;99.90
24638;DHT22;12773;50.162;8.548;2022-07-17T04:43:40;15.20;99.90
24638;DHT22;12773;50.162;8.548;2022-07-17T04:46:27;15.30;99.90
24638;DHT22;12773;50.162;8.548;2022-07-17T04:49:14;15.30;99.90
24638;DHT22;12773;50.162;8.548;2022-07-17T04:52:02;15.40;99.90
24638;DHT22;12773;50.162;8.548;2022-07-17T04:54:49;15.40;99.90
24638;DHT22;12773;50.162;8.548;2022-07-17T04:57:36;15.50;99.90
24638;DHT22;12773;50.162;8.548;2022-07-17T05:00:24;15.60;99.90
24638;DHT22;12773;50.162;8.548;2022-07-17T05:03:11;15.60;99.90
24638;DHT22;12773;50.162;8.548;2022-07-17T05:05:59;15.70;99.90
24638;DHT22;12773;50.162;8.548;2022-07-17T05:08:47;15.80;99.90
24638;DHT22;12773;50.162;8.548;2022-07-17T05:11:34;15.90;99.90
24638;DHT22;12773;50.162;8.548;2022-07-17T05:14:23;16.00;99.90
24638;DHT22;12773;50.162;8.548;2022-07-17T05:17:10;16.00;99.90
24638;DHT22;12773;50.162;8.548;2022-07-17T05:19:57;16.20;99.90
24638;DHT22;12773;50.162;8.548;2022-07-17T05:22:45;16.50;99.90
24638;DHT22;12773;50.162;8.548;2022-07-17T05:25:32;16.70;99.90
24638;DHT22;12773;50.162;8.548;2022-07-17T05:28:19;17.00;99.90
24638;DHT22;12773;50.162;8.548;2022-07-17T05:31:06;17.30;99.90
24638;DHT22;12773;50.162;8.548;2022-07-17T05:33:54;17.50;99.90
24638;DHT22;12773;50.162;8.548;2022-07-17T05:36:42;17.80;99.90
24638;DHT22;12773;50.162;8.548;2022-07-17T05:39:30;18.00;99.90
24638;DHT22;12773;50.162;8.548;2022-07-17T05:42:18;18.20;99.90
24638;DHT22;12773;50.162;8.548;2022-07-17T05:45:05;18.40;99.70
24638;DHT22;12773;50.162;8.548;2022-07-17T05:47:53;18.60;99.90
24638;DHT22;12773;50.162;8.548;2022-07-17T05:50:40;18.70;99.30
24638;DHT22;12773;50.162;8.548;2022-07-17T05:53:28;18.90;98.60
24638;DHT22;12773;50.162;8.548;2022-07-17T05:56:15;19.00;98.30
24638;DHT22;12773;50.162;8.548;2022-07-17T05:59:03;19.10;98.70
24638;DHT22;12773;50.162;8.548;2022-07-17T06:01:50;19.20;98.70
24638;DHT22;12773;50.162;8.548;2022-07-17T06:04:38;19.30;98.00
24638;DHT22;12773;50.162;8.548;2022-07-17T06:07:25;19.30;97.10
24638;DHT22;12773;50.162;8.548;2022-07-17T06:10:12;19.50;97.10
24638;DHT22;12773;50.162;8.548;2022-07-17T06:12:59;19.60;97.30
24638;DHT22;12773;50.162;8.548;2022-07-17T06:15:47;19.70;96.50
24638;DHT22;12773;50.162;8.548;2022-07-17T06:18:34;19.70;95.80
24638;DHT22;12773;50.162;8.548;2022-07-17T06:21:22;19.80;95.00
24638;DHT22;12773;50.162;8.548;2022-07-17T06:24:10;19.80;95.90
24638;DHT22;12773;50.162;8.548;2022-07-17T06:26:57;19.80;96.00
24638;DHT22;12773;50.162;8.548;2022-07-17T06:29:45;20.00;96.10
24638;DHT22;12773;50.162;8.548;2022-07-17T06:32:34;20.00;95.90
24638;DHT22;12773;50.162;8.548;2022-07-17T06:35:21;20.10;95.90
24638;DHT22;12773;50.162;8.548;2022-07-17T06:38:09;20.20;96.80
24638;DHT22;12773;50.162;8.548;2022-07-17T06:40:56;20.20;96.30
24638;DHT22;12773;50.162;8.548;2022-07-17T06:43:44;20.30;96.30
24638;DHT22;12773;50.162;8.548;2022-07-17T06:46:31;20.40;96.20
24638;DHT22;12773;50.162;8.548;2022-07-17T06:49:19;20.40;95.30
24638;DHT22;12773;50.162;8.548;2022-07-17T06:52:06;20.40;94.90
24638;DHT22;12773;50.162;8.548;2022-07-17T06:54:54;20.40;94.70
24638;DHT22;12773;50.162;8.548;2022-07-17T06:57:41;20.50;93.80
24638;DHT22;12773;50.162;8.548;2022-07-17T07:00:29;20.60;93.80
24638;DHT22;12773;50.162;8.548;2022-07-17T07:03:16;20.70;94.00
24638;DHT22;12773;50.162;8.548;2022-07-17T07:06:04;20.80;93.60
24638;DHT22;12773;50.162;8.548;2022-07-17T07:08:51;20.80;93.30
24638;DHT22;12773;50.162;8.548;2022-07-17T07:11:38;20.90;93.30
24638;DHT22;12773;50.162;8.548;2022-07-17T07:14:25;21.00;92.50
24638;DHT22;12773;50.162;8.548;2022-07-17T07:17:12;21.10;92.70
24638;DHT22;12773;50.162;8.548;2022-07-17T07:20:01;21.20;92.20
24638;DHT22;12773;50.162;8.548;2022-07-17T07:22:49;21.10;91.70
24638;DHT22;12773;50.162;8.548;2022-07-17T07:25:36;21.20;92.10
24638;DHT22;12773;50.162;8.548;2022-07-17T07:28:24;21.40;91.10
24638;DHT22;12773;50.162;8.548;2022-07-17T07:31:11;21.40;90.80
24638;DHT22;12773;50.162;8.548;2022-07-17T07:33:59;21.60;90.60
24638;DHT22;12773;50.162;8.548;2022-07-17T07:36:46;21.50;88.40
24638;DHT22;12773;50.162;8.548;2022-07-17T07:39:33;21.50;88.10
24638;DHT22;12773;50.162;8.548;2022-07-17T07:42:20;21.50;88.00
24638;DHT22;12773;50.162;8.548;2022-07-17T07:45:08;21.50;87.50
24638;DHT22;12773;50.162;8.548;2022-07-17T07:47:55;21.60;88.70
24638;DHT22;12773;50.162;8.548;2022-07-17T07:50:42;21.80;85.20
24638;DHT22;12773;50.162;8.548;2022-07-17T07:53:30;21.80;84.30
24638;DHT22;12773;50.162;8.548;2022-07-17T07:56:17;21.80;84.60
24638;DHT22;12773;50.162;8.548;2022-07-17T07:59:05;21.90;84.30
24638;DHT22;12773;50.162;8.548;2022-07-17T08:01:52;22.00;83.60
24638;DHT22;12773;50.162;8.548;2022-07-17T08:04:39;22.10;82.80
24638;DHT22;12773;50.162;8.548;2022-07-17T08:07:27;22.30;82.00
24638;DHT22;12773;50.162;8.548;2022-07-17T08:10:15;22.40;82.20
24638;DHT22;12773;50.162;8.548;2022-07-17T08:13:02;22.50;81.20
24638;DHT22;12773;50.162;8.548;2022-07-17T08:15:50;22.70;80.60
24638;DHT22;12773;50.162;8.548;2022-07-17T08:18:37;22.70;79.40
24638;DHT22;12773;50.162;8.548;2022-07-17T08:21:25;22.80;80.00
24638;DHT22;12773;50.162;8.548;2022-07-17T08:24:12;22.80;79.90
24638;DHT22;12773;50.162;8.548;2022-07-17T08:26:59;22.90;76.00
24638;DHT22;12773;50.162;8.548;2022-07-17T08:29:46;23.10;74.80
24638;DHT22;12773;50.162;8.548;2022-07-17T08:32:35;23.20;72.90
24638;DHT22;12773;50.162;8.548;2022-07-17T08:35:23;23.20;73.80
24638;DHT22;12773;50.162;8.548;2022-07-17T08:38:10;23.20;71.60
24638;DHT22;12773;50.162;8.548;2022-07-17T08:40:57;23.30;71.60
24638;DHT22;12773;50.162;8.548;2022-07-17T08:43:45;23.40;73.30
24638;DHT22;12773;50.162;8.548;2022-07-17T08:46:38;23.60;71.50
24638;DHT22;12773;50.162;8.548;2022-07-17T08:49:27;23.70;70.70
24638;DHT22;12773;50.162;8.548;2022-07-17T08:52:15;23.60;69.20
24638;DHT22;12773;50.162;8.548;2022-07-17T08:55:03;23.60;70.50
24638;DHT22;12773;50.162;8.548;2022-07-17T08:57:50;23.70;68.00
24638;DHT22;12773;50.162;8.548;2022-07-17T09:00:38;23.80;69.00
24638;DHT22;12773;50.162;8.548;2022-07-17T09:03:25;23.80;67.10
24638;DHT22;12773;50.162;8.548;2022-07-17T09:06:20;23.90;67.10
24638;DHT22;12773;50.162;8.548;2022-07-17T09:09:09;23.90;69.60
24638;DHT22;12773;50.162;8.548;2022-07-17T09:11:58;24.10;65.10
24638;DHT22;12773;50.162;8.548;2022-07-17T09:14:45;24.10;65.40
24638;DHT22;12773;50.162;8.548;2022-07-17T09:17:33;24.20;65.50
24638;DHT22;12773;50.162;8.548;2022-07-17T09:20:22;24.30;64.60
24638;DHT22;12773;50.162;8.548;2022-07-17T09:23:09;24.00;61.60
24638;DHT22;12773;50.162;8.548;2022-07-17T09:25:57;24.10;62.60
24638;DHT22;12773;50.162;8.548;2022-07-17T09:28:46;24.20;63.10
24638;DHT22;12773;50.162;8.548;2022-07-17T09:31:33;24.20;61.90
24638;DHT22;12773;50.162;8.548;2022-07-17T09:34:20;24.50;61.40
24638;DHT22;12773;50.162;8.548;2022-07-17T09:37:09;24.50;58.70
24638;DHT22;12773;50.162;8.548;2022-07-17T09:39:57;24.60;59.50
24638;DHT22;12773;50.162;8.548;2022-07-17T09:42:45;25.00;60.90
24638;DHT22;12773;50.162;8.548;2022-07-17T09:45:33;24.90;57.70
24638;DHT22;12773;50.162;8.548;2022-07-17T09:48:21;25.10;59.40
24638;DHT22;12773;50.162;8.548;2022-07-17T09:51:09;25.50;57.90
24638;DHT22;12773;50.162;8.548;2022-07-17T09:53:59;25.60;55.60
24638;DHT22;12773;50.162;8.548;2022-07-17T09:56:46;25.80;57.10
24638;DHT22;12773;50.162;8.548;2022-07-17T09:59:35;26.10;57.80
24638;DHT22;12773;50.162;8.548;2022-07-17T10:02:24;26.30;57.50
24638;DHT22;12773;50.162;8.548;2022-07-17T10:05:13;26.30;56.50
24638;DHT22;12773;50.162;8.548;2022-07-17T10:08:05;26.60;55.90
24638;DHT22;12773;50.162;8.548;2022-07-17T10:10:52;27.00;56.10
24638;DHT22;12773;50.162;8.548;2022-07-17T10:13:42;27.20;54.90
24638;DHT22;12773;50.162;8.548;2022-07-17T10:16:31;27.40;53.70
24638;DHT22;12773;50.162;8.548;2022-07-17T10:19:22;27.20;52.80
24638;DHT22;12773;50.162;8.548;2022-07-17T10:22:09;27.20;51.90
24638;DHT22;12773;50.162;8.548;2022-07-17T10:25:00;27.40;51.30
24638;DHT22;12773;50.162;8.548;2022-07-17T10:27:48;27.10;50.60
24638;DHT22;12773;50.162;8.548;2022-07-17T10:30:40;27.30;52.90
24638;DHT22;12773;50.162;8.548;2022-07-17T10:33:27;27.70;51.30
24638;DHT22;12773;50.162;8.548;2022-07-17T10:36:14;27.20;50.20
24638;DHT22;12773;50.162;8.548;2022-07-17T10:39:15;27.10;51.20
24638;DHT22;12773;50.162;8.548;2022-07-17T10:42:02;27.60;48.80
24638;DHT22;12773;50.162;8.548;2022-07-17T10:44:49;28.30;50.50
24638;DHT22;12773;50.162;8.548;2022-07-17T10:47:49;28.70;49.20
24638;DHT22;12773;50.162;8.548;2022-07-17T10:50:41;29.00;49.70
24638;DHT22;12773;50.162;8.548;2022-07-17T10:53:33;29.30;48.70
24638;DHT22;12773;50.162;8.548;2022-07-17T10:56:21;29.70;48.60
24638;DHT22;12773;50.162;8.548;2022-07-17T10:59:09;29.70;46.00
24638;DHT22;12773;50.162;8.548;2022-07-17T11:01:57;28.90;45.90
24638;DHT22;12773;50.162;8.548;2022-07-17T11:04:46;29.00;46.80
24638;DHT22;12773;50.162;8.548;2022-07-17T11:07:33;28.40;46.00
24638;DHT22;12773;50.162;8.548;2022-07-17T11:10:22;28.80;49.20
24638;DHT22;12773;50.162;8.548;2022-07-17T11:13:13;29.30;47.40
24638;DHT22;12773;50.162;8.548;2022-07-17T11:16:01;29.50;46.10
24638;DHT22;12773;50.162;8.548;2022-07-17T11:18:49;30.00;46.20
24638;DHT22;12773;50.162;8.548;2022-07-17T11:21:47;30.20;45.70
24638;DHT22;12773;50.162;8.548;2022-07-17T11:24:38;30.30;46.00
24638;DHT22;12773;50.162;8.548;2022-07-17T11:27:28;30.40;46.40
24638;DHT22;12773;50.162;8.548;2022-07-17T11:30:19;30.60;46.40
24638;DHT22;12773;50.162;8.548;2022-07-17T11:33:14;30.60;44.80
24638;DHT22;12773;50.162;8.548;2022-07-17T11:35:56;30.20;43.40
24638;DHT22;12773;50.162;8.548;2022-07-17T11:38:43;30.00;44.80
24638;DHT22;12773;50.162;8.548;2022-07-17T11:41:33;30.40;44.40
24638;DHT22;12773;50.162;8.548;2022-07-17T11:44:23;29.90;42.70
24638;DHT22;12773;50.162;8.548;2022-07-17T11:47:12;30.10;45.10
24638;DHT22;12773;50.162;8.548;2022-07-17T11:53:03;30.00;45.10
24638;DHT22;12773;50.162;8.548;2022-07-17T11:55:46;30.40;43.80
24638;DHT22;12773;50.162;8.548;2022-07-17T11:58:44;30.70;43.00
24638;DHT22;12773;50.162;8.548;2022-07-17T12:01:40;30.80;42.40
24638;DHT22;12773;50.162;8.548;2022-07-17T12:04:28;30.60;43.20
24638;DHT22;12773;50.162;8.548;2022-07-17T12:07:15;31.20;44.20
24638;DHT22;12773;50.162;8.548;2022-07-17T12:10:14;31.60;43.10
24638;DHT22;12773;50.162;8.548;2022-07-17T12:13:04;31.50;41.90
24638;DHT22;12773;50.162;8.548;2022-07-17T12:15:51;31.10;42.30
24638;DHT22;12773;50.162;8.548;2022-07-17T12:18:40;30.80;41.60
24638;DHT22;12773;50.162;8.548;2022-07-17T12:21:30;31.10;42.20
24638;DHT22;12773;50.162;8.548;2022-07-17T12:24:27;31.10;40.40
24638;DHT22;12773;50.162;8.548;2022-07-17T12:27:16;30.70;40.20
24638;DHT22;12773;50.162;8.548;2022-07-17T12:30:05;30.80;40.50
24638;DHT22;12773;50.162;8.548;2022-07-17T12:32:53;30.30;39.90
24638;DHT22;12773;50.162;8.548;2022-07-17T12:35:40;30.60;40.90
24638;DHT22;12773;50.162;8.548;2022-07-17T12:38:27;30.90;40.80
24638;DHT22;12773;50.162;8.548;2022-07-17T12:41:14;31.50;40.90
24638;DHT22;12773;50.162;8.548;2022-07-17T12:44:02;31.80;40.80
24638;DHT22;12773;50.162;8.548;2022-07-17T12:46:50;31.60;38.50
24638;DHT22;12773;50.162;8.548;2022-07-17T12:49:37;30.70;38.20
24638;DHT22;12773;50.162;8.548;2022-07-17T12:52:26;31.00;40.70
24638;DHT22;12773;50.162;8.548;2022-07-17T12:55:13;31.50;40.60
24638;DHT22;12773;50.162;8.548;2022-07-17T12:58:01;31.70;39.00
24638;DHT22;12773;50.162;8.548;2022-07-17T13:00:48;31.60;37.70
24638;DHT22;12773;50.162;8.548;2022-07-17T13:03:37;31.70;39.70
24638;DHT22;12773;50.162;8.548;2022-07-17T13:06:24;32.10;39.20
24638;DHT22;12773;50.162;8.548;2022-07-17T13:09:12;32.30;39.00
24638;DHT22;12773;50.162;8.548;2022-07-17T13:12:00;32.60;38.10
24638;DHT22;12773;50.162;8.548;2022-07-17T13:14:48;32.20;36.70
24638;DHT22;12773;50.162;8.548;2022-07-17T13:17:36;32.10;37.90
24638;DHT22;12773;50.162;8.548;2022-07-17T13:20:23;32.20;36.90
24638;DHT22;12773;50.162;8.548;2022-07-17T13:23:11;32.30;37.90
24638;DHT22;12773;50.162;8.548;2022-07-17T13:25:59;32.20;38.10
24638;DHT22;12773;50.162;8.548;2022-07-17T13:28:46;32.00;37.80
24638;DHT22;12773;50.162;8.548;2022-07-17T13:31:33;32.30;38.90
24638;DHT22;12773;50.162;8.548;2022-07-17T13:34:21;32.10;36.70
24638;DHT22;12773;50.162;8.548;2022-07-17T13:37:08;31.80;36.40
24638;DHT22;12773;50.162;8.548;2022-07-17T13:39:56;31.40;36.40
24638;DHT22;12773;50.162;8.548;2022-07-17T13:42:43;31.60;38.00
24638;DHT22;12773;50.162;8.548;2022-07-17T13:45:31;31.80;37.30
24638;DHT22;12773;50.162;8.548;2022-07-17T13:48:18;32.30;38.40
24638;DHT22;12773;50.162;8.548;2022-07-17T13:51:06;32.70;38.10
24638;DHT22;12773;50.162;8.548;2022-07-17T13:53:53;32.60;35.00
24638;DHT22;12773;50.162;8.548;2022-07-17T13:56:40;32.60;36.70
24638;DHT22;12773;50.162;8.548;2022-07-17T13:59:28;32.80;36.00
24638;DHT22;12773;50.162;8.548;2022-07-17T14:02:16;33.10;36.00
24638;DHT22;12773;50.162;8.548;2022-07-17T14:05:05;33.20;36.30
24638;DHT22;12773;50.162;8.548;2022-07-17T14:07:52;33.10;34.20
24638;DHT22;12773;50.162;8.548;2022-07-17T14:10:39;32.60;34.30
24638;DHT22;12773;50.162;8.548;2022-07-17T14:13:27;33.00;36.50
24638;DHT22;12773;50.162;8.548;2022-07-17T14:16:14;33.40;35.30
24638;DHT22;12773;50.162;8.548;2022-07-17T14:19:02;33.70;35.60
24638;DHT22;12773;50.162;8.548;2022-07-17T14:21:50;33.60;33.70
24638;DHT22;12773;50.162;8.548;2022-07-17T14:24:37;33.20;33.10
24638;DHT22;12773;50.162;8.548;2022-07-17T14:27:25;33.10;33.60
24638;DHT22;12773;50.162;8.548;2022-07-17T14:30:12;33.10;33.50
24638;DHT22;12773;50.162;8.548;2022-07-17T14:32:59;32.50;33.30
24638;DHT22;12773;50.162;8.548;2022-07-17T14:35:47;32.60;34.00
24638;DHT22;12773;50.162;8.548;2022-07-17T14:38:35;32.70;34.00
24638;DHT22;12773;50.162;8.548;2022-07-17T14:41:23;32.70;35.00
24638;DHT22;12773;50.162;8.548;2022-07-17T14:44:13;32.80;34.50
24638;DHT22;12773;50.162;8.548;2022-07-17T14:47:00;33.10;34.40
24638;DHT22;12773;50.162;8.548;2022-07-17T14:49:49;33.10;33.00
24638;DHT22;12773;50.162;8.548;2022-07-17T14:52:36;32.80;34.00
24638;DHT22;12773;50.162;8.548;2022-07-17T14:55:23;32.90;33.30
24638;DHT22;12773;50.162;8.548;2022-07-17T14:58:11;33.20;34.30
24638;DHT22;12773;50.162;8.548;2022-07-17T15:00:58;33.40;33.40
24638;DHT22;12773;50.162;8.548;2022-07-17T15:03:48;33.30;32.80
24638;DHT22;12773;50.162;8.548;2022-07-17T15:06:39;33.60;34.50
24638;DHT22;12773;50.162;8.548;2022-07-17T15:09:28;33.50;33.50
24638;DHT22;12773;50.162;8.548;2022-07-17T15:12:15;33.40;33.20
24638;DHT22;12773;50.162;8.548;2022-07-17T15:15:03;33.80;34.10
24638;DHT22;12773;50.162;8.548;2022-07-17T15:17:50;33.80;34.00
24638;DHT22;12773;50.162;8.548;2022-07-17T15:20:37;33.80;33.70
24638;DHT22;12773;50.162;8.548;2022-07-17T15:23:26;33.80;33.60
24638;DHT22;12773;50.162;8.548;2022-07-17T15:26:13;33.80;33.70
24638;DHT22;12773;50.162;8.548;2022-07-17T15:29:00;34.10;33.40
24638;DHT22;12773;50.162;8.548;2022-07-17T15:31:48;34.20;33.20
24638;DHT22;12773;50.162;8.548;2022-07-17T15:34:36;34.10;34.20
24638;DHT22;12773;50.162;8.548;2022-07-17T15:37:23;34.10;33.70
24638;DHT22;12773;50.162;8.548;2022-07-17T15:40:11;34.00;32.00
24638;DHT22;12773;50.162;8.548;2022-07-17T15:42:58;34.10;33.10
24638;DHT22;12773;50.162;8.548;2022-07-17T15:45:46;34.40;32.90
24638;DHT22;12773;50.162;8.548;2022-07-17T15:48:33;34.70;33.00
24638;DHT22;12773;50.162;8.548;2022-07-17T15:51:20;34.80;32.90
24638;DHT22;12773;50.162;8.548;2022-07-17T15:54:08;34.20;32.90
24638;DHT22;12773;50.162;8.548;2022-07-17T15:56:55;33.80;31.90
24638;DHT22;12773;50.162;8.548;2022-07-17T15:59:43;34.30;32.50
24638;DHT22;12773;50.162;8.548;2022-07-17T16:02:30;34.70;32.90
24638;DHT22;12773;50.162;8.548;2022-07-17T16:05:19;35.30;33.00
24638;DHT22;12773;50.162;8.548;2022-07-17T16:08:07;35.60;32.90
24638;DHT22;12773;50.162;8.548;2022-07-17T16:10:54;35.50;31.00
24638;DHT22;12773;50.162;8.548;2022-07-17T16:13:42;35.30;31.40
24638;DHT22;12773;50.162;8.548;2022-07-17T16:16:29;35.40;31.60
24638;DHT22;12773;50.162;8.548;2022-07-17T16:19:17;35.50;31.00
24638;DHT22;12773;50.162;8.548;2022-07-17T16:22:04;35.80;30.90
24638;DHT22;12773;50.162;8.548;2022-07-17T16:24:51;35.90;31.60
24638;DHT22;12773;50.162;8.548;2022-07-17T16:27:39;36.20;31.60
24638;DHT22;12773;50.162;8.548;2022-07-17T16:30:26;36.20;30.00
24638;DHT22;12773;50.162;8.548;2022-07-17T16:33:14;35.80;30.80
24638;DHT22;12773;50.162;8.548;2022-07-17T16:36:02;35.60;30.40
24638;DHT22;12773;50.162;8.548;2022-07-17T16:38:49;35.80;30.10
24638;DHT22;12773;50.162;8.548;2022-07-17T16:41:36;36.00;29.80
24638;DHT22;12773;50.162;8.548;2022-07-17T16:44:24;35.80;30.00
24638;DHT22;12773;50.162;8.548;2022-07-17T16:47:11;35.90;30.30
24638;DHT22;12773;50.162;8.548;2022-07-17T16:49:58;36.00;30.90
24638;DHT22;12773;50.162;8.548;2022-07-17T16:52:46;36.10;30.00
24638;DHT22;12773;50.162;8.548;2022-07-17T16:55:33;36.00;30.10
24638;DHT22;12773;50.162;8.548;2022-07-17T16:58:22;35.70;30.00
24638;DHT22;12773;50.162;8.548;2022-07-17T17:01:10;35.20;30.20
24638;DHT22;12773;50.162;8.548;2022-07-17T17:03:57;34.80;30.10
24638;DHT22;12773;50.162;8.548;2022-07-17T17:06:44;34.30;30.80
24638;DHT22;12773;50.162;8.548;2022-07-17T17:09:32;34.00;30.60
24638;DHT22;12773;50.162;8.548;2022-07-17T17:12:19;33.30;30.40
24638;DHT22;12773;50.162;8.548;2022-07-17T17:15:06;32.80;30.80
24638;DHT22;12773;50.162;8.548;2022-07-17T17:17:54;32.70;31.30
24638;DHT22;12773;50.162;8.548;2022-07-17T17:20:41;32.60;31.50
24638;DHT22;12773;50.162;8.548;2022-07-17T17:23:28;32.90;31.30
24638;DHT22;12773;50.162;8.548;2022-07-17T17:26:16;33.10;31.10
24638;DHT22;12773;50.162;8.548;2022-07-17T17:29:03;33.10;31.00
24638;DHT22;12773;50.162;8.548;2022-07-17T17:31:51;33.50;31.40
24638;DHT22;12773;50.162;8.548;2022-07-17T17:34:38;34.00;31.00
24638;DHT22;12773;50.162;8.548;2022-07-17T17:37:25;34.50;31.00
24638;DHT22;12773;50.162;8.548;2022-07-17T17:40:13;35.20;31.10
24638;DHT22;12773;50.162;8.548;2022-07-17T17:43:00;35.60;31.00